Time;durP1;ratioP1;P1;durP2;ratioP2;P2;SDS_P1;SDS_P2;PMS_P1;PMS_P2;Temp;Humidity;BMP_temperature;BMP_pressure;BME280_temperature;BME280_humidity;BME280_pressure;Samples;Min_cycle;Max_cycle;Signal;HPM_P1;HPM_P2
2022/04/24 00:02:18;;;;;;;9.85;8.38;;;9.90;99.90;;;;;;4912021;28;20504;-74
2022/04/24 00:04:44;;;;;;;12.85;9.57;;;9.80;99.90;;;;;;4936760;28;20122;-77
2022/04/24 00:07:10;;;;;;;10.02;8.60;;;9.80;99.90;;;;;;4952501;28;20777;-74
2022/04/24 00:09:37;;;;;;;9.82;8.20;;;9.80;99.90;;;;;;4951255;28;20477;-72
2022/04/24 00:12:05;;;;;;;11.95;8.70;;;9.90;99.90;;;;;;4948591;28;20054;-75
2022/04/24 00:14:31;;;;;;;9.38;8.10;;;9.70;99.90;;;;;;4950432;28;20070;-75
2022/04/24 00:16:56;;;;;;;10.77;8.05;;;9.70;99.90;;;;;;4925300;28;20401;-75
2022/04/24 00:19:22;;;;;;;10.57;7.97;;;9.70;99.90;;;;;;4939215;28;20404;-74
2022/04/24 00:21:48;;;;;;;9.45;8.27;;;9.60;99.90;;;;;;4923594;28;22507;-74
2022/04/24 00:24:14;;;;;;;8.85;7.80;;;9.80;99.90;;;;;;4954693;28;20496;-75
2022/04/24 00:26:40;;;;;;;9.30;7.82;;;9.60;99.90;;;;;;4926194;28;20051;-75
2022/04/24 00:29:06;;;;;;;9.05;7.60;;;9.50;99.90;;;;;;4953410;28;20043;-75
2022/04/24 00:31:32;;;;;;;10.43;7.65;;;9.70;99.90;;;;;;4955483;28;20843;-69
2022/04/24 00:33:58;;;;;;;8.90;7.32;;;9.50;99.90;;;;;;4939117;28;20054;-74
2022/04/24 00:36:23;;;;;;;9.32;7.63;;;9.50;99.90;;;;;;4924814;28;20035;-73
2022/04/24 00:38:49;;;;;;;9.98;7.00;;;9.40;99.90;;;;;;4909366;28;20065;-74
2022/04/24 00:41:15;;;;;;;8.15;6.90;;;9.40;99.90;;;;;;4954098;28;20063;-75
2022/04/24 00:43:41;;;;;;;8.50;6.90;;;9.40;99.90;;;;;;4926121;28;20063;-74
2022/04/24 00:46:18;;;;;;;8.32;7.30;;;9.40;99.90;;;;;;4938332;28;20051;-75
2022/04/24 00:48:44;;;;;;;9.30;7.40;;;9.30;99.90;;;;;;4954406;28;20093;-75
2022/04/24 00:51:11;;;;;;;9.30;7.03;;;9.30;99.90;;;;;;4953485;28;20046;-75
2022/04/24 00:53:37;;;;;;;9.00;6.80;;;9.30;99.90;;;;;;4953659;28;20058;-73
2022/04/24 00:56:05;;;;;;;9.88;7.40;;;9.20;99.90;;;;;;4942280;28;20435;-73
2022/04/24 00:58:32;;;;;;;8.10;6.88;;;9.20;99.90;;;;;;4938456;28;20053;-75
2022/04/24 01:01:00;;;;;;;8.57;6.95;;;9.20;99.90;;;;;;4937510;28;20515;-74
2022/04/24 01:03:26;;;;;;;8.32;6.20;;;9.20;99.90;;;;;;4953204;28;20046;-77
2022/04/24 01:05:53;;;;;;;7.78;6.75;;;9.10;99.90;;;;;;4957964;28;20049;-71
2022/04/24 01:08:18;;;;;;;8.15;7.35;;;9.60;99.90;;;;;;4952911;28;20055;-75
2022/04/24 01:10:44;;;;;;;9.25;6.90;;;9.00;99.90;;;;;;4954999;28;20123;-74
2022/04/24 01:13:10;;;;;;;7.72;6.25;;;9.00;99.90;;;;;;4954456;28;20047;-74
2022/04/24 01:15:36;;;;;;;6.70;5.95;;;9.00;99.90;;;;;;4937450;28;20123;-74
2022/04/24 01:18:01;;;;;;;7.97;6.30;;;8.90;99.90;;;;;;4937828;28;20043;-76
2022/04/24 01:20:27;;;;;;;7.90;5.95;;;8.90;99.90;;;;;;4938739;28;20725;-75
2022/04/24 01:22:53;;;;;;;7.22;6.03;;;9.00;99.90;;;;;;4937968;28;20098;-73
2022/04/24 01:25:19;;;;;;;6.90;6.20;;;8.80;99.90;;;;;;4939622;28;20516;-75
2022/04/24 01:27:45;;;;;;;8.05;6.30;;;8.80;99.90;;;;;;4956249;28;20070;-74
2022/04/24 01:30:11;;;;;;;8.25;6.18;;;8.80;99.90;;;;;;4953246;28;20181;-74
2022/04/24 01:32:38;;;;;;;7.97;6.28;;;8.80;99.90;;;;;;4953823;28;20182;-74
2022/04/24 01:35:07;;;;;;;7.53;6.57;;;8.80;99.90;;;;;;4905301;28;20488;-74
2022/04/24 01:37:33;;;;;;;8.75;6.50;;;8.70;99.90;;;;;;4937161;28;20571;-75
2022/04/24 01:39:59;;;;;;;6.65;5.95;;;8.70;99.90;;;;;;4952538;28;20055;-74
2022/04/24 01:42:24;;;;;;;7.10;6.32;;;8.70;99.90;;;;;;4937388;28;20503;-75
2022/04/24 01:44:50;;;;;;;7.57;6.43;;;8.50;99.90;;;;;;4953171;28;20046;-74
2022/04/24 01:47:16;;;;;;;7.93;6.70;;;8.60;99.90;;;;;;4954272;28;20082;-74
2022/04/24 01:49:42;;;;;;;8.32;5.80;;;8.60;99.90;;;;;;4941852;28;20071;-73
2022/04/24 01:52:09;;;;;;;6.50;5.80;;;8.60;99.90;;;;;;4937180;28;20728;-75
2022/04/24 01:54:35;;;;;;;6.85;5.85;;;8.60;99.90;;;;;;4909902;28;20098;-74
2022/04/24 01:57:01;;;;;;;7.75;5.38;;;8.50;99.90;;;;;;4937615;28;20121;-70
2022/04/24 01:59:26;;;;;;;6.97;6.13;;;8.40;99.90;;;;;;4925875;28;20117;-74
2022/04/24 02:01:52;;;;;;;7.78;5.53;;;8.40;99.90;;;;;;4953152;28;20054;-74
2022/04/24 02:04:22;;;;;;;11.10;6.25;;;8.40;99.90;;;;;;4941607;28;20043;-74
2022/04/24 02:06:49;;;;;;;7.38;5.85;;;8.40;99.90;;;;;;4938451;28;20408;-74
2022/04/24 02:09:15;;;;;;;9.60;6.20;;;8.30;99.90;;;;;;4952032;28;20492;-75
2022/04/24 02:11:40;;;;;;;7.78;6.15;;;8.30;99.90;;;;;;4936845;28;20052;-74
2022/04/24 02:14:06;;;;;;;7.13;5.85;;;8.30;99.90;;;;;;4905668;28;20529;-75
2022/04/24 02:16:32;;;;;;;6.75;5.68;;;8.30;99.90;;;;;;4924854;28;20050;-74
2022/04/24 02:18:58;;;;;;;9.32;6.28;;;8.30;99.90;;;;;;4953543;28;20093;-74
2022/04/24 02:21:24;;;;;;;6.22;5.57;;;8.20;99.90;;;;;;4935023;28;20701;-74
2022/04/24 02:23:49;;;;;;;7.38;6.50;;;8.20;99.90;;;;;;4921046;28;20082;-75
2022/04/24 02:26:15;;;;;;;7.80;6.18;;;8.20;99.90;;;;;;4954940;28;20083;-75
2022/04/24 02:28:41;;;;;;;8.80;6.60;;;9.10;99.90;;;;;;4952400;28;20175;-75
2022/04/24 02:31:07;;;;;;;8.93;6.03;;;8.20;99.90;;;;;;4952030;28;20441;-75
2022/04/24 02:33:34;;;;;;;8.27;6.35;;;8.10;99.90;;;;;;4949002;28;20504;-75
2022/04/24 02:35:59;;;;;;;7.47;6.25;;;8.00;99.90;;;;;;4952105;28;20053;-75
2022/04/24 02:38:25;;;;;;;9.00;6.18;;;8.10;99.90;;;;;;4952558;28;20054;-75
2022/04/24 02:40:51;;;;;;;6.65;5.93;;;8.10;99.90;;;;;;4938072;28;20052;-74
2022/04/24 02:43:17;;;;;;;9.40;6.72;;;8.10;99.90;;;;;;4939786;28;20050;-74
2022/04/24 02:45:43;;;;;;;8.27;6.80;;;8.10;99.90;;;;;;4937867;28;20039;-74
2022/04/24 02:48:09;;;;;;;8.45;6.43;;;8.10;99.90;;;;;;4937447;28;20058;-74
2022/04/24 02:50:35;;;;;;;8.77;6.38;;;8.00;99.90;;;;;;4952843;28;20055;-75
2022/04/24 02:53:01;;;;;;;7.25;6.28;;;8.00;99.90;;;;;;4937243;28;20039;-74
2022/04/24 02:55:27;;;;;;;7.22;6.13;;;8.00;99.90;;;;;;4957995;28;20555;-73
2022/04/24 02:57:53;;;;;;;8.82;6.53;;;8.10;99.90;;;;;;4911827;28;20055;-74
2022/04/24 03:00:25;;;;;;;7.63;6.47;;;8.00;99.90;;;;;;4957145;28;20074;-74
2022/04/24 03:02:51;;;;;;;7.25;6.28;;;8.10;99.90;;;;;;4958224;28;20054;-74
2022/04/24 03:05:19;;;;;;;7.38;6.20;;;8.10;99.90;;;;;;4942348;28;20353;-74
2022/04/24 03:07:45;;;;;;;8.82;5.80;;;8.10;99.90;;;;;;4958783;28;20055;-74
2022/04/24 03:10:12;;;;;;;8.65;6.57;;;8.10;99.90;;;;;;4956809;28;20053;-74
2022/04/24 03:12:39;;;;;;;8.50;6.43;;;8.10;99.90;;;;;;4927116;28;20055;-74
2022/04/24 03:15:07;;;;;;;8.65;6.60;;;8.00;99.90;;;;;;4943577;28;20082;-74
2022/04/24 03:17:33;;;;;;;8.00;6.50;;;8.00;99.90;;;;;;4958733;28;20050;-74
2022/04/24 03:20:04;;;;;;;10.80;6.72;;;8.00;99.90;;;;;;4947471;28;20055;-74
2022/04/24 03:22:33;;;;;;;8.60;6.53;;;8.00;99.90;;;;;;4941597;28;20593;-74
2022/04/24 03:25:02;;;;;;;8.40;6.25;;;7.50;99.90;;;;;;4957469;28;20051;-73
2022/04/24 03:27:28;;;;;;;7.25;6.38;;;8.00;99.90;;;;;;4956216;28;20054;-75
2022/04/24 03:29:53;;;;;;;7.78;6.60;;;8.00;99.90;;;;;;4956107;28;20048;-76
2022/04/24 03:32:19;;;;;;;8.35;7.00;;;8.00;99.90;;;;;;4957461;28;20058;-75
2022/04/24 03:34:45;;;;;;;9.20;6.05;;;8.00;99.90;;;;;;4957174;28;20535;-76
2022/04/24 03:37:11;;;;;;;9.25;6.85;;;8.10;99.90;;;;;;4958329;28;20166;-76
2022/04/24 03:39:36;;;;;;;7.45;6.28;;;8.50;99.90;;;;;;4958735;28;20058;-76
2022/04/24 03:42:04;;;;;;;11.43;6.85;;;8.10;99.90;;;;;;4940894;28;20056;-74
2022/04/24 03:44:32;;;;;;;8.70;6.82;;;8.00;99.90;;;;;;4924933;28;20079;-73
2022/04/24 03:46:57;;;;;;;9.02;7.35;;;8.00;99.90;;;;;;4942652;28;20051;-74
2022/04/24 03:49:23;;;;;;;8.60;7.25;;;8.00;99.90;;;;;;4940103;28;20073;-71
2022/04/24 03:51:49;;;;;;;9.50;7.40;;;8.00;99.90;;;;;;4909755;28;20083;-78
2022/04/24 03:54:15;;;;;;;9.77;7.47;;;8.00;99.90;;;;;;4956221;28;20085;-72
2022/04/24 03:56:40;;;;;;;8.93;6.93;;;8.00;99.90;;;;;;4956579;28;20047;-76
2022/04/24 03:59:06;;;;;;;10.40;7.13;;;8.00;99.90;;;;;;4956893;28;20101;-77
2022/04/24 04:01:32;;;;;;;11.40;7.65;;;8.10;99.90;;;;;;4909489;28;20043;-76
2022/04/24 04:03:57;;;;;;;8.10;6.90;;;8.10;99.90;;;;;;4956371;28;20043;-75
2022/04/24 04:06:23;;;;;;;9.52;7.18;;;8.10;99.90;;;;;;4926821;28;20049;-74
2022/04/24 04:08:49;;;;;;;10.95;6.88;;;8.10;99.90;;;;;;4911002;28;20054;-74
2022/04/24 04:11:14;;;;;;;13.48;7.65;;;8.10;99.90;;;;;;4925517;28;20468;-74
2022/04/24 04:13:40;;;;;;;10.57;7.53;;;8.10;99.90;;;;;;4925692;28;20119;-74
2022/04/24 04:16:06;;;;;;;8.65;6.15;;;8.10;99.90;;;;;;4909180;28;20047;-76
2022/04/24 04:18:32;;;;;;;10.98;6.75;;;8.10;99.90;;;;;;4943219;28;20051;-74
2022/04/24 04:20:57;;;;;;;11.05;6.63;;;8.10;99.90;;;;;;4939024;28;20485;-74
2022/04/24 04:23:23;;;;;;;8.77;6.53;;;8.40;99.90;;;;;;4956691;28;20051;-75
2022/04/24 04:25:49;;;;;;;9.50;6.00;;;8.10;99.90;;;;;;4956212;28;20106;-74
2022/04/24 04:28:14;;;;;;;8.65;5.85;;;8.20;99.90;;;;;;4925790;28;20401;-77
2022/04/24 04:30:41;;;;;;;7.80;6.00;;;8.20;99.90;;;;;;4939726;28;20109;-75
2022/04/24 04:33:09;;;;;;;8.43;6.25;;;8.10;99.90;;;;;;4941869;28;20046;-76
2022/04/24 04:35:35;;;;;;;7.18;5.90;;;8.20;99.90;;;;;;4953817;28;20448;-76
2022/04/24 04:38:01;;;;;;;8.13;5.53;;;8.20;99.90;;;;;;4940249;28;20572;-75
2022/04/24 04:40:27;;;;;;;8.00;6.15;;;8.20;99.90;;;;;;4925807;28;20194;-74
2022/04/24 04:42:53;;;;;;;8.13;6.00;;;8.20;99.90;;;;;;4939075;28;20055;-74
2022/04/24 04:45:18;;;;;;;11.75;6.43;;;8.20;99.90;;;;;;4907787;28;20508;-74
2022/04/24 04:47:47;;;;;;;8.85;5.95;;;8.20;99.90;;;;;;4954967;28;20047;-73
2022/04/24 04:50:12;;;;;;;8.50;6.10;;;8.20;99.90;;;;;;4956870;28;20065;-74
2022/04/24 04:52:38;;;;;;;7.43;5.35;;;8.20;99.90;;;;;;4956085;28;20507;-74
2022/04/24 04:55:05;;;;;;;10.57;5.60;;;8.70;99.90;;;;;;4958903;28;20050;-74
2022/04/24 04:57:31;;;;;;;7.50;5.82;;;8.10;99.90;;;;;;4955204;28;20043;-75
2022/04/24 04:59:57;;;;;;;8.38;5.53;;;8.20;99.90;;;;;;4960830;28;20082;-74
2022/04/24 05:02:23;;;;;;;9.07;5.95;;;8.20;99.90;;;;;;4943493;28;20059;-74
2022/04/24 05:04:49;;;;;;;7.65;6.07;;;8.20;99.90;;;;;;4928135;28;20050;-77
2022/04/24 05:07:14;;;;;;;8.75;5.95;;;8.20;99.90;;;;;;4926399;28;20047;-76
2022/04/24 05:09:40;;;;;;;7.32;5.82;;;8.30;99.90;;;;;;4928005;28;20065;-76
2022/04/24 05:12:07;;;;;;;9.25;5.97;;;8.30;99.90;;;;;;4943895;28;20113;-74
2022/04/24 05:14:33;;;;;;;7.85;6.35;;;8.30;99.90;;;;;;4929407;28;20125;-74
2022/04/24 05:16:59;;;;;;;8.10;5.70;;;8.40;99.90;;;;;;4946416;28;20043;-75
2022/04/24 05:19:26;;;;;;;8.45;5.85;;;8.40;99.90;;;;;;4960512;28;20039;-74
2022/04/24 05:21:54;;;;;;;10.15;6.07;;;8.40;99.90;;;;;;4911707;28;20047;-74
2022/04/24 05:24:20;;;;;;;8.00;5.80;;;8.60;99.90;;;;;;4960743;28;20042;-74
2022/04/24 05:26:46;;;;;;;8.55;6.38;;;8.50;99.90;;;;;;4958186;28;20492;-74
2022/04/24 05:29:12;;;;;;;10.70;6.65;;;8.60;99.90;;;;;;4928975;28;20042;-74
2022/04/24 05:31:38;;;;;;;8.38;6.22;;;8.60;99.90;;;;;;4959761;28;20142;-74
2022/04/24 05:34:05;;;;;;;12.20;6.53;;;8.60;99.90;;;;;;4943972;28;20548;-74
2022/04/24 05:36:30;;;;;;;12.20;6.43;;;8.60;99.90;;;;;;4956500;28;20110;-74
2022/04/24 05:38:56;;;;;;;10.10;6.97;;;8.60;99.90;;;;;;4954132;28;20055;-75
2022/04/24 05:41:22;;;;;;;8.85;6.63;;;8.90;99.90;;;;;;4958212;28;20074;-75
2022/04/24 05:43:47;;;;;;;9.95;7.03;;;8.70;99.90;;;;;;4942177;28;20046;-75
2022/04/24 05:46:13;;;;;;;9.30;6.40;;;8.70;99.90;;;;;;4960111;28;20055;-75
2022/04/24 05:48:39;;;;;;;10.68;6.53;;;8.80;99.90;;;;;;4924698;28;20059;-74
2022/04/24 05:51:05;;;;;;;9.07;6.43;;;8.80;99.90;;;;;;4943853;28;20062;-75
2022/04/24 05:53:30;;;;;;;8.88;6.10;;;8.80;99.90;;;;;;4958189;28;20050;-74
2022/04/24 05:55:57;;;;;;;6.70;5.80;;;8.80;99.90;;;;;;4943047;28;20457;-74
2022/04/24 05:58:23;;;;;;;7.88;6.38;;;8.90;99.90;;;;;;4958565;28;20059;-75
2022/04/24 06:00:48;;;;;;;8.40;6.00;;;8.90;99.90;;;;;;4942347;28;20464;-75
2022/04/24 06:03:14;;;;;;;11.82;6.38;;;8.90;99.90;;;;;;4957977;28;20126;-74
2022/04/24 06:05:40;;;;;;;9.25;6.15;;;9.00;99.90;;;;;;4957900;28;20070;-75
2022/04/24 06:08:06;;;;;;;9.77;6.30;;;9.00;99.90;;;;;;4939159;28;20050;-76
2022/04/24 06:10:31;;;;;;;8.25;5.70;;;9.10;99.90;;;;;;4957677;28;20043;-77
2022/04/24 06:12:57;;;;;;;9.02;5.93;;;9.20;99.90;;;;;;4926250;28;20061;-76
2022/04/24 06:15:26;;;;;;;8.35;5.80;;;9.20;99.90;;;;;;4959221;28;20058;-76
2022/04/24 06:17:55;;;;;;;9.60;6.47;;;9.30;99.90;;;;;;4952752;28;20039;-76
2022/04/24 06:20:22;;;;;;;7.10;5.70;;;9.40;99.90;;;;;;4953984;28;20051;-76
2022/04/24 06:22:50;;;;;;;8.45;5.15;;;9.50;99.90;;;;;;4949635;28;20055;-75
2022/04/24 06:25:19;;;;;;;6.97;5.38;;;9.60;99.90;;;;;;4953677;28;20085;-76
2022/04/24 06:27:46;;;;;;;8.00;5.80;;;9.60;99.90;;;;;;4939849;28;20102;-76
2022/04/24 06:30:13;;;;;;;7.10;5.25;;;9.80;99.90;;;;;;4954288;28;20055;-72
2022/04/24 06:32:43;;;;;;;8.98;5.40;;;9.90;99.90;;;;;;4952142;28;20507;-76
2022/04/24 06:35:11;;;;;;;7.90;5.13;;;9.90;99.90;;;;;;4936373;28;20059;-75
2022/04/24 06:37:38;;;;;;;6.75;4.65;;;10.00;99.90;;;;;;4952012;28;20043;-76
2022/04/24 06:40:09;;;;;;;5.97;4.88;;;10.20;99.90;;;;;;4952339;28;20067;-76
2022/04/24 06:42:35;;;;;;;7.45;5.07;;;10.30;99.90;;;;;;4952480;28;20404;-76
2022/04/24 06:45:02;;;;;;;7.15;4.43;;;10.40;99.90;;;;;;4924415;28;20081;-75
2022/04/24 06:47:28;;;;;;;7.88;4.68;;;10.60;99.90;;;;;;4951744;28;20527;-76
2022/04/24 06:49:57;;;;;;;5.43;4.25;;;10.70;99.90;;;;;;4949814;28;20047;-74
2022/04/24 06:52:23;;;;;;;5.80;4.50;;;10.80;99.90;;;;;;4950998;28;20090;-74
2022/04/24 06:54:48;;;;;;;6.20;4.70;;;11.00;99.90;;;;;;4934966;28;20050;-75
2022/04/24 06:57:14;;;;;;;5.97;4.43;;;11.10;99.90;;;;;;4952083;28;20066;-75
2022/04/24 06:59:40;;;;;;;7.15;4.32;;;11.30;99.90;;;;;;4951049;28;21918;-77
2022/04/24 07:02:06;;;;;;;7.13;4.63;;;11.40;99.90;;;;;;4951032;28;20048;-79
2022/04/24 07:04:32;;;;;;;7.22;4.53;;;11.60;99.90;;;;;;4951551;28;20044;-76
2022/04/24 07:06:58;;;;;;;6.43;4.47;;;11.70;99.90;;;;;;4934718;28;20333;-75
2022/04/24 07:09:23;;;;;;;5.13;3.63;;;11.80;99.90;;;;;;4917266;28;20193;-75
2022/04/24 07:11:49;;;;;;;6.15;4.03;;;12.00;99.90;;;;;;4935709;28;20051;-75
2022/04/24 07:14:15;;;;;;;5.15;3.35;;;12.10;99.90;;;;;;4919674;28;20047;-76
2022/04/24 07:16:41;;;;;;;4.20;3.30;;;12.20;99.90;;;;;;4922710;28;20043;-77
2022/04/24 07:19:07;;;;;;;5.72;3.20;;;12.30;99.90;;;;;;4947802;28;20042;-75
2022/04/24 07:21:33;;;;;;;6.57;3.08;;;12.40;99.90;;;;;;4949439;28;20050;-72
2022/04/24 07:23:58;;;;;;;4.47;2.97;;;12.40;99.90;;;;;;4948394;28;20082;-75
2022/04/24 07:26:24;;;;;;;4.88;2.90;;;12.50;99.90;;;;;;4951787;28;20369;-75
2022/04/24 07:28:50;;;;;;;4.80;2.95;;;12.70;99.90;;;;;;4953486;28;20500;-76
2022/04/24 07:31:19;;;;;;;4.28;2.92;;;12.80;99.90;;;;;;4935058;28;20110;-76
2022/04/24 07:33:45;;;;;;;3.80;2.63;;;13.10;99.90;;;;;;4922900;28;20129;-77
2022/04/24 07:36:11;;;;;;;4.80;2.72;;;13.30;99.90;;;;;;4951117;28;20154;-74
2022/04/24 07:38:37;;;;;;;4.82;2.45;;;13.50;99.90;;;;;;4918154;28;20047;-75
2022/04/24 07:41:05;;;;;;;3.88;2.40;;;13.60;99.90;;;;;;4932914;28;20313;-75
2022/04/24 07:43:33;;;;;;;4.10;2.17;;;13.80;99.90;;;;;;4938775;28;20061;-78
2022/04/24 07:45:59;;;;;;;4.80;2.40;;;13.90;99.90;;;;;;4916925;28;20082;-79
2022/04/24 07:48:26;;;;;;;3.67;2.28;;;14.10;99.90;;;;;;4924408;28;20047;-78
2022/04/24 07:50:52;;;;;;;4.93;2.40;;;14.30;99.90;;;;;;4934040;28;20046;-80
2022/04/24 07:53:19;;;;;;;4.57;2.20;;;14.40;99.90;;;;;;4923674;28;20063;-80
2022/04/24 07:55:50;;;;;;;4.05;2.30;;;14.60;99.90;;;;;;4934943;28;20103;-79
2022/04/24 07:58:16;;;;;;;3.70;2.30;;;14.80;99.90;;;;;;4935452;28;20057;-78
2022/04/24 08:00:42;;;;;;;3.97;2.20;;;14.90;99.90;;;;;;4911741;28;20058;-78
2022/04/24 08:03:13;;;;;;;4.32;2.20;;;15.00;99.90;;;;;;4908930;28;20096;-78
2022/04/24 08:05:40;;;;;;;5.13;2.42;;;15.30;99.90;;;;;;4924344;28;20427;-78
2022/04/24 08:08:14;;;;;;;2.85;1.85;;;15.50;99.90;;;;;;4934393;28;22307;-79
2022/04/24 08:10:41;;;;;;;3.40;2.00;;;15.60;99.90;;;;;;4931401;28;20050;-79
2022/04/24 08:13:08;;;;;;;4.18;1.95;;;15.80;99.90;;;;;;4936187;28;20523;-79
2022/04/24 08:15:35;;;;;;;2.33;1.50;;;15.90;99.90;;;;;;4923858;28;20053;-78
2022/04/24 08:18:02;;;;;;;3.75;1.90;;;16.10;99.90;;;;;;4933648;28;20058;-78
2022/04/24 08:20:30;;;;;;;3.00;1.67;;;16.40;99.90;;;;;;4949030;28;20058;-78
2022/04/24 08:22:59;;;;;;;3.72;1.65;;;16.50;99.90;;;;;;4932199;28;20113;-78
2022/04/24 08:25:26;;;;;;;3.50;1.75;;;16.70;99.90;;;;;;4953404;28;20058;-79
2022/04/24 08:27:53;;;;;;;3.40;1.73;;;16.80;99.90;;;;;;4918513;28;20051;-79
2022/04/24 08:30:21;;;;;;;3.10;1.70;;;17.00;99.90;;;;;;4941437;28;20718;-79
2022/04/24 08:32:48;;;;;;;3.13;1.52;;;17.20;99.90;;;;;;4956145;28;20075;-78
2022/04/24 08:35:16;;;;;;;1.90;1.42;;;17.30;99.70;;;;;;4924562;28;20043;-74
2022/04/24 08:37:42;;;;;;;2.92;2.00;;;17.40;99.50;;;;;;4951836;28;20562;-79
2022/04/24 08:40:10;;;;;;;3.65;2.10;;;17.70;99.00;;;;;;4908639;28;20128;-78
2022/04/24 08:42:36;;;;;;;4.70;1.98;;;17.90;98.70;;;;;;4940462;28;20051;-79
2022/04/24 08:45:04;;;;;;;3.60;2.00;;;18.00;98.20;;;;;;4952142;28;20062;-79
2022/04/24 08:47:29;;;;;;;3.25;1.63;;;18.10;98.10;;;;;;4925221;28;20055;-79
2022/04/24 08:50:00;;;;;;;3.78;1.92;;;18.10;97.90;;;;;;4950724;28;20050;-79
2022/04/24 08:52:28;;;;;;;3.28;1.80;;;18.40;97.40;;;;;;4954474;28;20047;-78
2022/04/24 08:54:55;;;;;;;4.38;1.67;;;18.50;96.90;;;;;;4951138;28;20043;-78
2022/04/24 08:57:26;;;;;;;3.65;1.70;;;18.70;96.60;;;;;;4924600;28;20526;-79
2022/04/24 08:59:54;;;;;;;3.50;1.60;;;18.90;96.20;;;;;;4941430;28;20045;-79
2022/04/24 09:02:20;;;;;;;3.55;1.70;;;19.00;96.30;;;;;;4936940;28;21925;-80
2022/04/24 09:04:46;;;;;;;4.53;1.60;;;19.20;95.70;;;;;;4940622;28;20130;-80
2022/04/24 09:07:17;;;;;;;4.03;1.77;;;19.40;95.10;;;;;;4924058;28;20205;-78
2022/04/24 09:09:48;;;;;;;2.47;1.55;;;19.60;94.90;;;;;;4942142;28;20082;-79
2022/04/24 09:12:23;;;;;;;2.90;1.55;;;19.70;93.90;;;;;;4937926;28;20061;-76
2022/04/24 09:14:51;;;;;;;3.30;1.63;;;19.90;93.70;;;;;;4938695;28;20083;-79
2022/04/24 09:17:29;;;;;;;3.85;1.85;;;19.90;93.80;;;;;;4956387;28;20043;-77
2022/04/24 09:19:56;;;;;;;3.13;1.58;;;20.10;93.00;;;;;;4955822;28;20050;-78
2022/04/24 09:22:23;;;;;;;3.25;1.67;;;20.20;92.90;;;;;;4935686;28;20051;-79
2022/04/24 09:24:59;;;;;;;3.28;1.80;;;20.30;92.90;;;;;;4938451;28;20050;-79
2022/04/24 09:27:30;;;;;;;5.20;2.00;;;20.40;91.50;;;;;;4953849;28;20504;-78
2022/04/24 09:30:08;;;;;;;3.88;2.13;;;20.50;92.20;;;;;;4922552;28;20286;-79
2022/04/24 09:32:55;;;;;;;4.93;1.83;;;20.70;92.10;;;;;;4954272;28;20043;-77
2022/04/24 09:35:24;;;;;;;3.97;2.05;;;20.80;91.40;;;;;;4924326;28;20078;-79
2022/04/24 09:37:49;;;;;;;6.00;2.10;;;20.80;92.10;;;;;;4950145;28;20050;-79
2022/04/24 09:40:16;;;;;;;5.35;1.98;;;20.80;92.00;;;;;;4905659;28;20073;-81
2022/04/24 09:42:52;;;;;;;4.18;1.95;;;20.90;91.80;;;;;;4920042;28;20069;-79
2022/04/24 09:45:25;;;;;;;3.58;2.17;;;20.90;90.50;;;;;;4934356;28;20058;-79
2022/04/24 09:48:00;;;;;;;4.07;1.95;;;21.00;89.60;;;;;;4952487;28;20046;-79
2022/04/24 09:50:29;;;;;;;3.67;2.00;;;21.00;89.40;;;;;;4953579;28;20054;-79
2022/04/24 09:52:57;;;;;;;3.78;1.90;;;21.10;89.30;;;;;;4923862;28;20141;-79
2022/04/24 09:55:25;;;;;;;2.65;1.42;;;21.20;88.50;;;;;;4924281;28;20129;-77
2022/04/24 09:57:53;;;;;;;6.18;1.58;;;21.20;86.80;;;;;;4934945;28;20433;-79
2022/04/24 10:00:19;;;;;;;3.88;1.83;;;21.20;86.20;;;;;;4937829;28;20050;-80
2022/04/24 10:02:47;;;;;;;3.88;1.90;;;21.40;86.30;;;;;;4935940;28;20071;-79
2022/04/24 10:05:14;;;;;;;2.85;1.50;;;21.50;84.90;;;;;;4940565;28;20055;-79
2022/04/24 10:07:40;;;;;;;3.95;1.35;;;21.70;83.60;;;;;;4923952;28;20053;-79
2022/04/24 10:10:07;;;;;;;3.35;1.52;;;21.70;82.60;;;;;;4951555;28;20059;-79
2022/04/24 10:12:33;;;;;;;4.32;1.33;;;21.80;81.20;;;;;;4955000;28;20076;-80
2022/04/24 10:15:12;;;;;;;3.92;1.60;;;21.80;80.60;;;;;;4924664;28;20129;-79
2022/04/24 10:17:49;;;;;;;5.40;1.95;;;21.80;78.30;;;;;;4954654;28;20400;-79
2022/04/24 10:20:34;;;;;;;6.85;2.28;;;21.90;79.80;;;;;;4951162;28;20097;-78
2022/04/24 10:23:00;;;;;;;6.20;1.85;;;22.10;80.40;;;;;;4950255;28;20050;-79
2022/04/24 10:25:44;;;;;;;6.70;2.25;;;22.00;80.90;;;;;;4937404;28;20058;-79
2022/04/24 10:28:10;;;;;;;6.40;1.98;;;22.10;79.50;;;;;;4948672;28;20158;-79
2022/04/24 10:30:35;;;;;;;5.93;2.00;;;22.20;80.90;;;;;;4951430;28;20125;-79
2022/04/24 10:33:18;;;;;;;4.07;2.25;;;22.20;81.30;;;;;;4936434;28;20059;-79
2022/04/24 10:36:00;;;;;;;4.85;1.77;;;22.30;78.70;;;;;;4950495;28;20123;-79
2022/04/24 10:38:28;;;;;;;6.45;1.95;;;22.40;77.80;;;;;;4966853;28;20065;-79
2022/04/24 10:41:05;;;;;;;4.05;2.20;;;22.40;78.00;;;;;;4949411;28;20058;-79
2022/04/24 10:43:38;;;;;;;2.88;1.60;;;22.30;75.10;;;;;;4940105;28;20368;-78
2022/04/24 10:46:22;;;;;;;5.32;1.70;;;22.30;76.40;;;;;;4950389;28;20137;-79
2022/04/24 10:48:49;;;;;;;3.97;1.95;;;22.30;77.00;;;;;;4936052;28;20110;-80
2022/04/24 10:51:27;;;;;;;5.13;2.17;;;22.30;76.40;;;;;;4920345;28;20102;-79
2022/04/24 10:54:00;;;;;;;3.40;1.60;;;22.50;74.90;;;;;;4937250;28;20053;-79
2022/04/24 10:56:29;;;;;;;4.22;1.85;;;22.40;73.80;;;;;;4952241;28;20197;-79
2022/04/24 10:59:10;;;;;;;4.35;1.70;;;22.30;73.60;;;;;;4952176;28;20043;-79
2022/04/24 11:01:38;;;;;;;4.13;1.92;;;22.40;73.60;;;;;;4951231;28;20142;-79
2022/04/24 11:04:08;;;;;;;5.00;1.90;;;22.30;74.50;;;;;;4936947;28;20066;-79
2022/04/24 11:06:34;;;;;;;6.45;2.25;;;22.40;73.80;;;;;;4948363;28;20085;-79
2022/04/24 11:09:12;;;;;;;4.35;1.80;;;22.60;74.20;;;;;;4943793;28;20239;-76
2022/04/24 11:11:49;;;;;;;4.68;1.67;;;22.60;72.00;;;;;;4920995;28;20058;-83
2022/04/24 11:14:26;;;;;;;4.15;1.80;;;22.80;72.70;;;;;;4952348;28;20109;-83
2022/04/24 11:16:54;;;;;;;6.38;2.25;;;22.50;72.60;;;;;;4934648;28;20043;-84
2022/04/24 11:19:30;;;;;;;4.32;1.85;;;22.40;73.10;;;;;;4923290;28;20051;-82
2022/04/24 11:22:13;;;;;;;5.43;1.98;;;22.40;72.30;;;;;;4947417;28;20073;-80
2022/04/24 11:24:40;;;;;;;4.07;1.80;;;22.50;72.90;;;;;;4923107;28;20055;-80
2022/04/24 11:27:12;;;;;;;4.88;2.10;;;22.50;73.70;;;;;;4939483;28;20051;-81
2022/04/24 11:29:39;;;;;;;7.88;2.58;;;22.50;73.40;;;;;;4949710;28;20053;-83
2022/04/24 11:32:09;;;;;;;5.63;2.20;;;22.60;74.10;;;;;;4937897;28;20764;-84
2022/04/24 11:34:36;;;;;;;8.48;2.20;;;22.70;72.90;;;;;;4941629;28;20078;-79
2022/04/24 11:37:04;;;;;;;3.55;1.92;;;22.80;72.20;;;;;;4920909;28;20074;-76
2022/04/24 11:39:29;;;;;;;3.83;1.92;;;22.90;71.90;;;;;;4938734;28;20189;-80
2022/04/24 11:41:58;;;;;;;6.80;2.08;;;22.80;71.20;;;;;;4936361;28;20524;-79
2022/04/24 11:50:15;;;;;;;4.50;2.00;;;23.00;71.90;;;;;;4950797;28;20513;-79
2022/04/24 11:52:47;;;;;;;5.07;2.45;;;23.00;71.00;;;;;;4951798;28;20122;-79
2022/04/24 11:55:16;;;;;;;5.05;2.03;;;23.00;70.60;;;;;;4936545;28;20051;-79
2022/04/24 11:57:43;;;;;;;6.70;2.42;;;23.20;70.90;;;;;;4953428;28;20047;-79
2022/04/24 12:00:18;;;;;;;4.82;2.28;;;23.10;70.60;;;;;;4940422;28;20070;-78
2022/04/24 12:02:44;;;;;;;5.30;2.17;;;23.10;70.00;;;;;;4944774;28;20559;-79
2022/04/24 12:05:11;;;;;;;3.75;2.30;;;22.90;69.90;;;;;;4943351;28;20098;-79
2022/04/24 12:07:37;;;;;;;5.32;2.50;;;22.90;70.20;;;;;;4954976;28;20047;-78
2022/04/24 12:10:07;;;;;;;5.10;2.60;;;22.80;70.10;;;;;;4947816;28;20512;-78
2022/04/24 12:12:47;;;;;;;6.10;2.70;;;22.70;70.30;;;;;;4953888;28;20057;-76
2022/04/24 12:15:19;;;;;;;5.63;2.65;;;22.70;70.20;;;;;;4939572;28;20377;-79
2022/04/24 12:17:53;;;;;;;5.10;2.70;;;22.70;70.60;;;;;;4953321;28;20113;-77
2022/04/24 12:20:20;;;;;;;5.70;2.63;;;22.70;69.90;;;;;;4955567;28;20876;-75
2022/04/24 12:22:46;;;;;;;5.07;2.78;;;22.70;70.70;;;;;;4952925;28;20047;-78
2022/04/24 12:25:18;;;;;;;4.80;2.55;;;22.90;71.00;;;;;;4939192;28;20050;-78
2022/04/24 12:27:57;;;;;;;5.15;2.72;;;23.00;69.90;;;;;;4953288;28;20039;-78
2022/04/24 12:30:31;;;;;;;5.88;2.90;;;23.00;68.30;;;;;;4954062;28;20126;-79
2022/04/24 12:33:07;;;;;;;5.30;2.80;;;22.70;69.90;;;;;;4954183;28;20130;-78
2022/04/24 12:35:33;;;;;;;8.05;3.20;;;22.60;68.60;;;;;;4926410;28;20150;-77
2022/04/24 12:38:00;;;;;;;4.63;2.83;;;22.40;70.10;;;;;;4935730;28;20039;-79
2022/04/24 12:40:26;;;;;;;5.97;4.25;;;22.30;70.20;;;;;;4952475;28;20130;-78
2022/04/24 12:42:55;;;;;;;7.50;4.93;;;22.30;70.40;;;;;;4935285;28;20122;-76
2022/04/24 12:45:24;;;;;;;7.47;4.18;;;22.40;70.80;;;;;;4936234;28;20062;-79
2022/04/24 12:47:50;;;;;;;6.80;3.28;;;22.20;70.80;;;;;;4952773;28;20054;-73
2022/04/24 12:50:16;;;;;;;5.00;2.75;;;22.20;70.90;;;;;;4948776;28;20047;-78
2022/04/24 12:52:43;;;;;;;5.38;3.58;;;22.10;70.70;;;;;;4955206;28;20480;-78
2022/04/24 12:55:10;;;;;;;4.60;2.83;;;22.10;70.30;;;;;;4943918;28;20051;-79
2022/04/24 12:57:36;;;;;;;6.18;3.10;;;21.90;70.90;;;;;;4955856;28;20065;-77
2022/04/24 13:00:06;;;;;;;4.70;3.03;;;22.10;70.90;;;;;;4923372;28;20051;-78